createdAt,value
2018-11-07T00:00:52.993Z,16.20
2018-11-07T00:01:52.981Z,14.90
2018-11-07T00:02:53.089Z,14.50
2018-11-07T00:03:53.004Z,13.20
2018-11-07T00:04:52.954Z,16.30
2018-11-07T00:05:52.957Z,13.70
2018-11-07T00:06:52.928Z,15.60
2018-11-07T00:07:52.957Z,16.00
2018-11-07T00:08:52.911Z,16.60
2018-11-07T00:09:52.965Z,15.50
2018-11-07T00:10:52.909Z,14.90
2018-11-07T00:11:52.873Z,15.80
2018-11-07T00:12:52.862Z,14.60
2018-11-07T00:13:52.887Z,12.60
2018-11-07T00:14:52.845Z,16.00
2018-11-07T00:15:52.870Z,13.00
2018-11-07T00:16:52.824Z,15.00
2018-11-07T00:17:52.817Z,13.50
2018-11-07T00:18:52.799Z,13.90
2018-11-07T00:19:52.812Z,13.60
2018-11-07T00:20:52.800Z,16.10
2018-11-07T00:21:52.848Z,16.80
2018-11-07T00:22:52.754Z,16.00
2018-11-07T00:23:52.744Z,16.20
2018-11-07T00:24:52.827Z,14.20
2018-11-07T00:25:52.746Z,17.00
2018-11-07T00:26:52.721Z,13.30
2018-11-07T00:27:52.701Z,16.60
2018-11-07T00:28:52.689Z,15.50
2018-11-07T00:29:52.680Z,14.70
2018-11-07T00:30:52.699Z,15.40
2018-11-07T00:31:52.664Z,15.50
2018-11-07T00:32:52.647Z,15.30
2018-11-07T00:33:52.637Z,12.80
2018-11-07T00:34:52.666Z,15.60
2018-11-07T00:35:52.637Z,12.90
2018-11-07T00:36:52.603Z,16.00
2018-11-07T00:37:52.600Z,15.30
2018-11-07T00:38:52.578Z,16.10
2018-11-07T00:39:52.567Z,15.40
2018-11-07T00:40:52.574Z,14.90
2018-11-07T00:41:52.548Z,14.50
2018-11-07T00:42:52.538Z,14.50
2018-11-07T00:43:52.536Z,13.60
2018-11-07T00:44:52.515Z,14.40
2018-11-07T00:45:52.501Z,14.40
2018-11-07T00:48:08.681Z,18.40
2018-11-07T00:50:19.782Z,14.80
2018-11-07T00:54:47.463Z,17.60
2018-11-07T00:55:56.670Z,14.00
2018-11-07T00:56:54.996Z,14.90
2018-11-07T00:57:55.060Z,14.10
2018-11-07T00:58:47.421Z,13.80
2018-11-07T00:59:54.971Z,14.30
2018-11-07T01:00:54.950Z,15.50
2018-11-07T01:01:56.279Z,19.00
2018-11-07T01:02:47.358Z,14.30
2018-11-07T01:03:47.349Z,13.90
2018-11-07T01:04:47.365Z,14.10
2018-11-07T01:05:47.322Z,15.30
2018-11-07T01:06:47.331Z,14.70
2018-11-07T01:07:47.334Z,13.30
2018-11-07T01:08:47.300Z,13.20
2018-11-07T01:09:47.325Z,14.50
2018-11-07T01:10:47.314Z,13.70
2018-11-07T01:11:47.316Z,13.80
2018-11-07T01:12:47.247Z,12.40
2018-11-07T01:13:47.244Z,15.80
2018-11-07T01:14:47.224Z,15.70
2018-11-07T01:15:47.233Z,13.80
2018-11-07T01:16:47.345Z,14.20
2018-11-07T01:17:47.194Z,13.30
2018-11-07T01:18:47.181Z,13.70
2018-11-07T01:19:47.172Z,13.50
2018-11-07T01:20:47.171Z,16.00
2018-11-07T01:21:47.174Z,14.50
2018-11-07T01:22:47.138Z,14.70
2018-11-07T01:23:47.125Z,15.60
2018-11-07T01:24:47.118Z,13.80
2018-11-07T01:25:47.106Z,14.30
2018-11-07T01:26:47.111Z,13.90
2018-11-07T01:27:47.128Z,12.90
2018-11-07T01:28:47.073Z,14.10
2018-11-07T01:29:47.059Z,13.60
2018-11-07T01:32:19.482Z,14.60
2018-11-07T01:33:19.410Z,12.30
2018-11-07T01:34:19.416Z,16.00
2018-11-07T01:35:19.453Z,13.60
2018-11-07T01:36:19.361Z,13.50
2018-11-07T01:37:19.352Z,14.90
2018-11-07T01:38:19.362Z,14.60
2018-11-07T01:39:19.353Z,13.50
2018-11-07T01:40:19.316Z,15.60
2018-11-07T01:41:19.308Z,14.50
2018-11-07T01:42:19.309Z,14.20
2018-11-07T01:43:19.325Z,14.40
2018-11-07T01:44:19.282Z,13.10
2018-11-07T01:45:19.264Z,14.80
2018-11-07T01:46:19.294Z,13.70
2018-11-07T01:47:19.238Z,15.10
2018-11-07T01:48:19.228Z,14.50
2018-11-07T01:49:19.248Z,14.60
2018-11-07T01:50:19.240Z,13.50
2018-11-07T01:51:19.264Z,12.10
2018-11-07T01:52:19.184Z,17.10
2018-11-07T01:53:19.178Z,13.40
2018-11-07T01:54:19.184Z,14.70
2018-11-07T01:55:19.247Z,13.60
2018-11-07T01:56:19.148Z,14.20
2018-11-07T01:57:19.134Z,14.70
2018-11-07T01:58:19.149Z,14.30
2018-11-07T01:59:19.127Z,14.10
2018-11-07T02:00:19.094Z,14.60
2018-11-07T02:01:19.085Z,13.90
2018-11-07T02:02:19.100Z,13.90
2018-11-07T02:03:19.064Z,16.10
2018-11-07T02:04:19.101Z,13.80
2018-11-07T02:05:19.133Z,15.20
2018-11-07T02:06:19.029Z,14.40
2018-11-07T02:07:19.028Z,14.40
2018-11-07T02:08:19.010Z,14.40
2018-11-07T02:09:19.014Z,14.00
2018-11-07T02:10:18.985Z,13.80
2018-11-07T02:11:18.986Z,15.10
2018-11-07T02:12:18.968Z,14.10
2018-11-07T02:13:18.983Z,15.30
2018-11-07T02:14:18.977Z,14.20
2018-11-07T02:15:18.928Z,14.20
2018-11-07T02:16:18.922Z,14.70
2018-11-07T02:17:18.911Z,12.90
2018-11-07T02:18:18.901Z,13.60
2018-11-07T02:19:18.909Z,12.70
2018-11-07T02:20:18.876Z,15.10
2018-11-07T02:21:18.875Z,14.00
2018-11-07T02:22:18.854Z,13.50
2018-11-07T02:23:18.842Z,14.10
2018-11-07T02:24:18.833Z,14.20
2018-11-07T02:25:18.858Z,13.20
2018-11-07T02:26:18.830Z,12.90
2018-11-07T02:27:18.810Z,13.50
2018-11-07T02:28:18.788Z,13.10
2018-11-07T02:29:18.783Z,14.40
2018-11-07T02:30:18.786Z,13.10
2018-11-07T02:31:18.788Z,12.00
2018-11-07T02:32:18.744Z,14.90
2018-11-07T02:33:18.731Z,12.50
2018-11-07T02:34:18.727Z,11.90
2018-11-07T02:35:18.733Z,14.40
2018-11-07T02:36:18.725Z,14.30
2018-11-07T02:37:18.697Z,13.70
2018-11-07T02:38:18.679Z,13.20
2018-11-07T02:39:18.673Z,15.00
2018-11-07T02:40:18.659Z,12.20
2018-11-07T02:41:18.662Z,12.60
2018-11-07T02:42:18.635Z,13.70
2018-11-07T02:43:18.622Z,12.60
2018-11-07T02:44:18.622Z,13.30
2018-11-07T02:45:18.608Z,14.00
2018-11-07T02:46:18.617Z,12.00
2018-11-07T02:47:18.603Z,16.00
2018-11-07T02:48:18.604Z,14.30
2018-11-07T02:49:18.559Z,14.40
2018-11-07T02:50:18.554Z,13.00
2018-11-07T02:51:18.555Z,11.00
2018-11-07T02:52:18.536Z,13.90
2018-11-07T02:53:18.542Z,14.30
2018-11-07T02:54:18.515Z,12.60
2018-11-07T02:55:18.493Z,15.20
2018-11-07T02:56:18.506Z,13.40
2018-11-07T02:57:18.468Z,14.90
2018-11-07T02:58:18.466Z,13.70
2018-11-07T02:59:18.478Z,13.60
2018-11-07T03:00:18.440Z,12.60
2018-11-07T03:01:18.560Z,13.40
2018-11-07T03:02:18.428Z,13.50
2018-11-07T03:03:18.430Z,12.30
2018-11-07T03:04:18.399Z,12.50
2018-11-07T03:05:18.382Z,12.60
2018-11-07T03:06:18.372Z,15.00
2018-11-07T03:07:18.382Z,12.10
2018-11-07T03:08:18.351Z,12.00
2018-11-07T03:09:18.341Z,12.40
2018-11-07T03:10:18.400Z,13.00
2018-11-07T03:11:18.366Z,14.60
2018-11-07T03:12:18.370Z,11.50
2018-11-07T03:13:18.301Z,12.80
2018-11-07T03:14:18.320Z,12.90
2018-11-07T03:15:18.282Z,11.90
2018-11-07T03:16:18.289Z,13.60
2018-11-07T03:17:18.253Z,15.10
2018-11-07T03:18:18.259Z,12.90
2018-11-07T03:19:18.232Z,13.20
2018-11-07T03:20:18.222Z,15.70
2018-11-07T03:21:18.220Z,11.80
2018-11-07T03:22:18.220Z,12.80
2018-11-07T03:23:18.235Z,13.40
2018-11-07T03:24:18.175Z,12.60
2018-11-07T03:25:18.175Z,10.30
2018-11-07T03:26:18.160Z,13.00
2018-11-07T03:27:18.190Z,13.30
2018-11-07T03:28:18.163Z,10.70
2018-11-07T03:29:18.123Z,10.80
2018-11-07T03:30:18.120Z,12.90
2018-11-07T03:31:18.116Z,12.20
2018-11-07T03:32:18.106Z,13.30
2018-11-07T03:33:18.101Z,10.90
2018-11-07T03:34:18.109Z,14.90
2018-11-07T03:35:18.061Z,12.30
2018-11-07T03:36:18.050Z,11.70
2018-11-07T03:37:18.043Z,11.80
2018-11-07T03:38:18.024Z,11.30
2018-11-07T03:39:18.037Z,10.40
2018-11-07T03:40:18.032Z,11.00
2018-11-07T03:41:17.990Z,10.10
2018-11-07T03:42:17.977Z,9.60
2018-11-07T03:43:17.972Z,11.20
2018-11-07T03:44:17.981Z,10.80
2018-11-07T03:45:17.950Z,12.80
2018-11-07T03:46:17.938Z,9.50
2018-11-07T03:47:17.940Z,10.40
2018-11-07T03:48:17.916Z,10.30
2018-11-07T03:49:17.909Z,12.00
2018-11-07T03:50:17.914Z,10.20
2018-11-07T03:51:17.884Z,12.00
2018-11-07T03:52:17.871Z,11.00
2018-11-07T03:53:25.462Z,11.50
2018-11-07T03:54:28.114Z,10.60
2018-11-07T03:55:25.421Z,12.20
2018-11-07T03:57:29.091Z,9.50
2018-11-07T03:58:36.621Z,10.10
2018-11-07T03:59:37.871Z,10.30
2018-11-07T04:00:36.625Z,9.30
2018-11-07T04:01:36.603Z,10.60
2018-11-07T04:02:36.583Z,11.40
2018-11-07T04:03:36.541Z,11.40
2018-11-07T04:04:36.563Z,12.00
2018-11-07T04:05:39.040Z,11.80
2018-11-07T04:06:36.510Z,13.20
2018-11-07T04:08:39.196Z,9.50
2018-11-07T04:09:48.952Z,11.40
2018-11-07T04:10:46.716Z,10.10
2018-11-07T04:11:46.732Z,11.40
2018-11-07T04:12:46.746Z,11.40
2018-11-07T04:13:46.720Z,11.90
2018-11-07T04:14:46.686Z,11.40
2018-11-07T04:15:48.067Z,12.40
2018-11-07T04:16:47.669Z,13.20
2018-11-07T04:17:46.666Z,13.20
2018-11-07T04:20:58.532Z,14.10
2018-11-07T04:23:07.754Z,9.40
2018-11-07T04:25:17.001Z,9.30
2018-11-07T04:27:26.778Z,11.50
2018-11-07T04:30:46.273Z,10.00
2018-11-07T04:32:56.794Z,12.50
2018-11-07T04:34:04.307Z,11.00
2018-11-07T04:35:04.331Z,10.20
2018-11-07T04:36:06.808Z,10.80
2018-11-07T04:37:04.290Z,12.30
2018-11-07T04:38:04.230Z,11.10
2018-11-07T04:39:03.813Z,11.20
2018-11-07T04:40:05.496Z,11.50
2018-11-07T04:41:03.745Z,11.20
2018-11-07T04:42:04.194Z,11.70
2018-11-07T04:43:04.258Z,11.10
2018-11-07T04:44:04.191Z,9.90
2018-11-07T04:45:06.529Z,11.20
2018-11-07T04:46:05.621Z,12.30
2018-11-07T04:47:04.147Z,12.20
2018-11-07T04:48:05.197Z,11.70
2018-11-07T04:49:04.164Z,11.90
2018-11-07T04:49:56.564Z,9.90
2018-11-07T04:51:04.123Z,12.00
2018-11-07T04:52:05.206Z,11.40
2018-11-07T04:53:05.385Z,12.10
2018-11-07T04:54:05.072Z,10.60
2018-11-07T04:54:56.533Z,13.20
2018-11-07T04:55:56.496Z,10.10
2018-11-07T04:56:56.493Z,9.70
2018-11-07T04:57:56.492Z,12.20
2018-11-07T04:58:56.473Z,11.90
2018-11-07T04:59:56.495Z,9.40
2018-11-07T05:00:56.440Z,11.00
2018-11-07T05:01:56.431Z,10.50
2018-11-07T05:02:56.452Z,10.50
2018-11-07T05:03:56.437Z,11.60
2018-11-07T05:04:56.407Z,10.60
2018-11-07T05:05:56.396Z,9.30
2018-11-07T05:06:57.469Z,9.70
2018-11-07T05:07:56.419Z,8.90
2018-11-07T05:08:56.358Z,11.40
2018-11-07T05:09:56.357Z,10.40
2018-11-07T05:10:56.333Z,9.00
2018-11-07T05:11:56.324Z,10.70
2018-11-07T05:12:56.334Z,10.40
2018-11-07T05:13:56.304Z,9.30
2018-11-07T05:14:56.297Z,11.10
2018-11-07T05:15:56.300Z,10.60
2018-11-07T05:16:56.272Z,11.30
2018-11-07T05:17:56.281Z,11.30
2018-11-07T05:18:56.276Z,11.10
2018-11-07T05:19:56.237Z,8.80
2018-11-07T05:20:56.228Z,10.70
2018-11-07T05:21:56.218Z,11.60
2018-11-07T05:22:56.260Z,12.70
2018-11-07T05:23:56.192Z,13.00
2018-11-07T05:24:56.180Z,11.40
2018-11-07T05:25:56.198Z,11.60
2018-11-07T05:26:56.173Z,9.40
2018-11-07T05:27:56.163Z,10.70
2018-11-07T05:28:56.147Z,10.40
2018-11-07T05:29:56.127Z,10.10
2018-11-07T05:30:56.113Z,10.20
2018-11-07T05:31:56.179Z,9.50
2018-11-07T05:32:56.113Z,10.50
2018-11-07T05:33:56.084Z,13.90
2018-11-07T05:34:56.080Z,10.40
2018-11-07T05:35:56.117Z,9.40
2018-11-07T05:36:56.049Z,10.40
2018-11-07T05:37:56.062Z,10.80
2018-11-07T05:38:56.032Z,9.50
2018-11-07T05:39:56.022Z,12.10
2018-11-07T05:40:56.070Z,9.70
2018-11-07T05:41:55.997Z,9.70
2018-11-07T05:42:55.989Z,8.80
2018-11-07T05:43:56.026Z,8.30
2018-11-07T05:44:55.972Z,9.30
2018-11-07T05:45:55.957Z,8.80
2018-11-07T05:46:55.942Z,7.90
2018-11-07T05:47:55.942Z,10.00
2018-11-07T05:48:55.979Z,10.90
2018-11-07T05:49:55.942Z,9.30
2018-11-07T05:50:55.939Z,10.70
2018-11-07T05:51:55.917Z,9.00
2018-11-07T05:52:55.876Z,12.30
2018-11-07T05:53:55.873Z,11.70
2018-11-07T05:54:55.875Z,8.80
2018-11-07T05:55:55.853Z,12.70
2018-11-07T05:56:55.835Z,10.20
2018-11-07T05:57:55.890Z,8.80
2018-11-07T05:58:55.817Z,8.70
2018-11-07T05:59:55.820Z,8.80
2018-11-07T06:00:55.796Z,9.30
2018-11-07T06:01:55.782Z,10.90
2018-11-07T06:02:55.821Z,10.90
2018-11-07T06:03:55.784Z,10.30
2018-11-07T06:04:55.790Z,9.90
2018-11-07T06:05:55.747Z,11.80
2018-11-07T06:06:55.768Z,9.90
2018-11-07T06:07:55.761Z,10.30
2018-11-07T06:08:55.712Z,7.70
2018-11-07T06:09:55.735Z,8.60
2018-11-07T06:10:55.681Z,10.00
2018-11-07T06:11:55.670Z,10.00
2018-11-07T06:12:55.696Z,9.00
2018-11-07T06:13:55.704Z,10.40
2018-11-07T06:14:55.664Z,11.40
2018-11-07T06:15:55.705Z,9.00
2018-11-07T06:16:55.630Z,8.20
2018-11-07T06:17:55.631Z,11.40
2018-11-07T06:18:55.598Z,9.40
2018-11-07T06:19:55.633Z,9.10
2018-11-07T06:20:55.585Z,9.50
2018-11-07T06:21:55.568Z,9.30
2018-11-07T06:22:55.565Z,8.10
2018-11-07T06:23:55.551Z,7.90
2018-11-07T06:24:55.706Z,8.10
2018-11-07T06:25:55.535Z,10.70
2018-11-07T06:26:55.516Z,7.50
2018-11-07T06:27:55.495Z,10.20
2018-11-07T06:28:55.502Z,8.50
2018-11-07T06:29:55.475Z,7.20
2018-11-07T06:30:55.497Z,8.60
2018-11-07T06:31:55.458Z,8.80
2018-11-07T06:32:55.483Z,8.00
2018-11-07T06:33:55.452Z,8.50
2018-11-07T06:34:55.425Z,10.40
2018-11-07T06:35:55.437Z,9.20
2018-11-07T06:36:55.472Z,9.60
2018-11-07T06:37:55.398Z,10.50
2018-11-07T06:38:55.384Z,9.00
2018-11-07T06:39:55.417Z,9.40
2018-11-07T06:40:55.360Z,9.10
2018-11-07T06:41:55.378Z,9.90
2018-11-07T06:42:55.347Z,7.90
2018-11-07T06:43:55.337Z,10.10
2018-11-07T06:44:55.346Z,10.00
2018-11-07T06:45:55.369Z,10.50
2018-11-07T06:46:55.316Z,9.00
2018-11-07T06:47:55.311Z,7.40
2018-11-07T06:48:55.268Z,9.50
2018-11-07T06:49:55.288Z,7.70
2018-11-07T06:50:55.251Z,6.80
2018-11-07T06:51:55.290Z,7.90
2018-11-07T06:52:55.255Z,7.20
2018-11-07T06:53:55.220Z,8.60
2018-11-07T06:54:55.216Z,9.40
2018-11-07T06:55:55.195Z,7.40
2018-11-07T06:56:55.184Z,10.60
2018-11-07T06:57:55.195Z,6.60
2018-11-07T06:58:55.208Z,8.80
2018-11-07T06:59:55.152Z,6.50
2018-11-07T07:00:55.218Z,7.00
2018-11-07T07:01:55.152Z,7.40
2018-11-07T07:02:55.139Z,7.50
2018-11-07T07:03:55.184Z,12.20
2018-11-07T07:04:55.101Z,10.50
2018-11-07T07:05:55.090Z,6.60
2018-11-07T07:06:55.092Z,8.50
2018-11-07T07:07:55.113Z,6.30
2018-11-07T07:08:55.057Z,11.10
2018-11-07T07:09:55.048Z,8.50
2018-11-07T07:10:55.059Z,8.90
2018-11-07T07:11:55.030Z,10.80
2018-11-07T07:12:55.027Z,7.60
2018-11-07T07:13:55.028Z,9.40
2018-11-07T07:14:55.007Z,9.20
2018-11-07T07:15:55.032Z,10.10
2018-11-07T07:16:54.970Z,7.90
2018-11-07T07:17:54.993Z,8.40
2018-11-07T07:18:54.975Z,9.50
2018-11-07T07:19:54.951Z,10.00
2018-11-07T07:20:54.937Z,7.90
2018-11-07T07:21:54.917Z,8.90
2018-11-07T07:22:54.902Z,9.60
2018-11-07T07:23:54.899Z,7.40
2018-11-07T07:24:54.903Z,9.10
2018-11-07T07:25:54.886Z,9.00
2018-11-07T07:26:54.860Z,7.20
2018-11-07T07:27:54.852Z,8.40
2018-11-07T07:28:54.943Z,8.70
2018-11-07T07:29:54.910Z,9.60
2018-11-07T07:30:54.837Z,8.10
2018-11-07T07:31:54.812Z,6.80
2018-11-07T07:32:54.884Z,10.30
2018-11-07T07:33:54.894Z,8.00
2018-11-07T07:34:54.862Z,7.50
2018-11-07T07:35:54.763Z,7.30
2018-11-07T07:36:54.754Z,8.00
2018-11-07T07:37:54.738Z,10.60
2018-11-07T07:38:54.782Z,7.70
2018-11-07T07:39:54.717Z,8.60
2018-11-07T07:40:54.705Z,7.20
2018-11-07T07:41:54.704Z,6.40
2018-11-07T07:42:54.753Z,9.40
2018-11-07T07:43:54.698Z,10.20
2018-11-07T07:44:54.668Z,7.20
2018-11-07T07:45:54.653Z,8.70
2018-11-07T07:46:54.655Z,9.00
2018-11-07T07:47:54.630Z,6.80
2018-11-07T07:48:54.641Z,7.40
2018-11-07T07:49:54.609Z,8.30
2018-11-07T07:50:54.608Z,8.10
2018-11-07T07:51:54.592Z,7.90
2018-11-07T07:52:54.595Z,9.80
2018-11-07T07:53:54.612Z,7.80
2018-11-07T07:54:54.621Z,10.40
2018-11-07T07:55:54.547Z,8.80
2018-11-07T07:56:54.530Z,10.10
2018-11-07T07:57:54.520Z,6.40
2018-11-07T07:58:54.570Z,6.80
2018-11-07T07:59:54.501Z,7.90
2018-11-07T08:00:54.486Z,6.30
2018-11-07T08:01:54.482Z,5.60
2018-11-07T08:02:54.469Z,7.40
2018-11-07T08:03:54.472Z,6.30
2018-11-07T08:04:54.464Z,8.00
2018-11-07T08:05:54.436Z,6.40
2018-11-07T08:06:54.516Z,9.90
2018-11-07T08:07:54.483Z,11.00
2018-11-07T08:08:54.459Z,6.60
2018-11-07T08:09:54.504Z,8.20
2018-11-07T08:10:54.386Z,7.20
2018-11-07T08:11:54.400Z,8.50
2018-11-07T08:12:54.370Z,7.00
2018-11-07T08:13:54.357Z,6.10
2018-11-07T08:14:54.349Z,5.50
2018-11-07T08:15:54.351Z,9.30
2018-11-07T08:16:54.316Z,6.50
2018-11-07T08:17:54.344Z,5.60
2018-11-07T08:18:54.339Z,5.30
2018-11-07T08:19:54.289Z,6.90
2018-11-07T08:20:54.295Z,4.80
2018-11-07T08:21:54.259Z,6.00
2018-11-07T08:22:54.249Z,5.80
2018-11-07T08:23:54.244Z,5.90
2018-11-07T08:24:54.224Z,7.80
2018-11-07T08:25:54.357Z,5.20
2018-11-07T08:26:54.393Z,6.10
2018-11-07T08:27:54.200Z,6.70
2018-11-07T08:28:54.244Z,7.20
2018-11-07T08:29:54.172Z,6.70
2018-11-07T08:30:54.276Z,6.00
2018-11-07T08:31:54.153Z,3.80
2018-11-07T08:32:54.168Z,4.40
2018-11-07T08:33:54.153Z,6.80
2018-11-07T08:34:54.113Z,5.90
2018-11-07T08:35:54.149Z,5.00
2018-11-07T08:36:54.093Z,7.20
2018-11-07T08:37:54.082Z,5.40
2018-11-07T08:38:54.073Z,6.10
2018-11-07T08:39:54.058Z,6.40
2018-11-07T08:40:54.065Z,4.40
2018-11-07T08:41:54.045Z,8.40
2018-11-07T08:42:54.023Z,4.70
2018-11-07T08:43:54.017Z,6.10
2018-11-07T08:44:54.018Z,4.40
2018-11-07T08:45:54.291Z,5.50
2018-11-07T08:46:53.986Z,5.20
2018-11-07T08:47:54.032Z,5.60
2018-11-07T08:48:53.962Z,5.00
2018-11-07T08:49:53.953Z,4.50
2018-11-07T08:50:53.967Z,5.30
2018-11-07T08:51:53.928Z,5.40
2018-11-07T08:52:53.913Z,5.80
2018-11-07T08:53:53.910Z,5.50
2018-11-07T08:54:53.922Z,4.90
2018-11-07T08:55:53.882Z,6.30
2018-11-07T08:56:53.918Z,6.20
2018-11-07T08:57:53.864Z,5.50
2018-11-07T08:58:53.849Z,5.40
2018-11-07T08:59:53.836Z,5.20
2018-11-07T09:00:53.835Z,6.20
2018-11-07T09:01:53.859Z,5.20
2018-11-07T09:02:53.832Z,8.60
2018-11-07T09:03:53.797Z,4.90
2018-11-07T09:04:53.988Z,6.50
2018-11-07T09:05:53.780Z,5.80
2018-11-07T09:06:53.765Z,5.70
2018-11-07T09:07:53.783Z,4.20
2018-11-07T09:08:53.789Z,6.40
2018-11-07T09:09:53.734Z,6.00
2018-11-07T09:10:53.714Z,4.90
2018-11-07T09:11:53.709Z,6.50
2018-11-07T09:12:53.728Z,4.60
2018-11-07T09:13:53.681Z,4.90
2018-11-07T09:14:53.679Z,6.50
2018-11-07T09:15:53.679Z,5.30
2018-11-07T09:16:53.656Z,6.30
2018-11-07T09:17:53.665Z,4.20
2018-11-07T09:18:53.629Z,5.90
2018-11-07T09:19:53.647Z,4.80
2018-11-07T09:20:53.605Z,6.00
2018-11-07T09:21:53.649Z,6.00
2018-11-07T09:22:53.621Z,7.90
2018-11-07T09:23:53.607Z,5.30
2018-11-07T09:24:53.566Z,5.10
2018-11-07T09:25:53.553Z,6.40
2018-11-07T09:26:53.555Z,3.80
2018-11-07T09:27:53.528Z,4.00
2018-11-07T09:29:03.421Z,7.20
2018-11-07T09:29:53.542Z,6.10
2018-11-07T09:31:03.468Z,3.80
2018-11-07T09:32:01.220Z,5.00
2018-11-07T09:32:53.525Z,8.60
2018-11-07T09:35:03.912Z,4.90
2018-11-07T09:36:03.677Z,5.80
2018-11-07T09:37:03.665Z,4.50
2018-11-07T09:38:03.669Z,3.30
2018-11-07T09:39:03.643Z,6.50
2018-11-07T09:40:03.734Z,5.10
2018-11-07T09:41:03.632Z,5.70
2018-11-07T09:42:03.612Z,4.70
2018-11-07T09:43:03.605Z,4.70
2018-11-07T09:44:03.592Z,4.10
2018-11-07T09:45:03.575Z,6.10
2018-11-07T09:46:03.592Z,4.40
2018-11-07T09:47:03.555Z,5.20
2018-11-07T09:48:03.678Z,6.80
2018-11-07T09:49:03.549Z,6.60
2018-11-07T09:50:03.524Z,8.70
2018-11-07T09:51:03.598Z,7.40
2018-11-07T09:52:03.521Z,5.80
2018-11-07T09:53:03.500Z,4.30
2018-11-07T09:54:03.608Z,3.90
2018-11-07T09:55:03.827Z,4.80
2018-11-07T09:56:03.656Z,3.80
2018-11-07T09:57:03.475Z,5.80
2018-11-07T09:58:13.309Z,4.60
2018-11-07T09:59:11.372Z,6.70
2018-11-07T10:00:11.158Z,3.50
2018-11-07T10:01:15.134Z,5.10
2018-11-07T10:02:03.458Z,5.10
2018-11-07T10:04:22.831Z,2.80
2018-11-07T10:05:22.843Z,3.60
2018-11-07T10:06:22.803Z,3.30
2018-11-07T10:07:22.735Z,6.80
2018-11-07T10:08:22.732Z,6.50
2018-11-07T10:09:22.720Z,4.30
2018-11-07T10:10:32.976Z,8.10
2018-11-07T10:11:31.643Z,7.30
2018-11-07T10:12:22.807Z,3.10
2018-11-07T10:13:22.676Z,4.40
2018-11-07T10:14:22.664Z,7.50
2018-11-07T10:15:22.675Z,5.30
2018-11-07T10:16:22.649Z,7.20
2018-11-07T10:17:22.631Z,4.90
2018-11-07T10:18:30.158Z,4.00
2018-11-07T10:19:30.177Z,4.10
2018-11-07T10:20:31.426Z,3.30
2018-11-07T10:21:22.635Z,4.70
2018-11-07T10:22:22.573Z,2.80
2018-11-07T10:23:22.569Z,4.10
2018-11-07T10:24:22.590Z,4.40
2018-11-07T10:25:22.551Z,2.80
2018-11-07T10:26:22.553Z,4.90
2018-11-07T10:27:22.821Z,2.40
2018-11-07T10:28:31.241Z,4.30
2018-11-07T10:29:22.980Z,4.70
2018-11-07T10:30:22.708Z,3.90
2018-11-07T10:31:22.591Z,4.60
2018-11-07T10:32:22.465Z,5.50
2018-11-07T10:33:22.457Z,4.30
2018-11-07T10:34:22.484Z,6.10
2018-11-07T10:35:22.490Z,4.80
2018-11-07T10:36:22.418Z,5.00
2018-11-07T10:37:32.142Z,3.90
2018-11-07T10:38:23.507Z,5.80
2018-11-07T10:39:22.413Z,3.00
2018-11-07T10:40:22.396Z,4.30
2018-11-07T10:41:22.360Z,4.40
2018-11-07T10:42:22.408Z,3.50
2018-11-07T10:43:22.348Z,4.40
2018-11-07T10:44:22.384Z,5.20
2018-11-07T10:45:22.327Z,2.10
2018-11-07T10:46:22.390Z,2.20
2018-11-07T10:47:22.323Z,2.90
2018-11-07T10:48:22.342Z,3.60
2018-11-07T10:49:22.273Z,3.10
2018-11-07T10:50:22.266Z,3.00
2018-11-07T10:51:22.254Z,2.00
2018-11-07T10:52:22.279Z,4.70
2018-11-07T10:53:22.228Z,3.20
2018-11-07T10:54:22.232Z,2.30
2018-11-07T10:55:22.230Z,3.40
2018-11-07T10:56:22.194Z,3.60
2018-11-07T10:57:22.211Z,2.70
2018-11-07T10:58:22.177Z,4.30
2018-11-07T10:59:22.182Z,4.00
2018-11-07T11:00:22.158Z,2.60
2018-11-07T11:01:22.144Z,3.50
2018-11-07T11:02:22.151Z,5.00
2018-11-07T11:03:22.132Z,6.00
2018-11-07T11:04:22.107Z,3.90
2018-11-07T11:05:22.224Z,4.10
2018-11-07T11:06:22.097Z,4.00
2018-11-07T11:07:22.117Z,3.80
2018-11-07T11:08:22.105Z,4.10
2018-11-07T11:09:22.050Z,5.20
2018-11-07T11:10:22.039Z,6.20
2018-11-07T11:11:22.121Z,4.20
2018-11-07T11:12:22.058Z,3.00
2018-11-07T11:13:22.012Z,5.90
2018-11-07T11:14:21.998Z,3.20
2018-11-07T11:15:21.990Z,3.00
2018-11-07T11:16:21.971Z,2.70
2018-11-07T11:17:22.061Z,6.00
2018-11-07T11:18:21.949Z,4.30
2018-11-07T11:19:21.944Z,3.70
2018-11-07T11:20:21.950Z,2.80
2018-11-07T11:21:21.928Z,7.30
2018-11-07T11:22:21.943Z,4.20
2018-11-07T11:23:21.925Z,2.90
2018-11-07T11:24:21.881Z,2.10
2018-11-07T11:25:21.877Z,4.20
2018-11-07T11:26:21.867Z,4.00
2018-11-07T11:27:21.921Z,4.80
2018-11-07T11:28:21.904Z,2.40
2018-11-07T11:29:21.833Z,3.50
2018-11-07T11:30:21.819Z,4.50
2018-11-07T11:31:21.813Z,2.50
2018-11-07T11:32:21.829Z,4.10
2018-11-07T11:33:21.792Z,2.20
2018-11-07T11:34:21.898Z,4.80
2018-11-07T11:35:21.839Z,4.60
2018-11-07T11:36:21.755Z,3.00
2018-11-07T11:37:21.748Z,2.60
2018-11-07T11:38:21.728Z,3.90
2018-11-07T11:39:21.786Z,5.10
2018-11-07T11:40:21.710Z,3.10
2018-11-07T11:41:21.697Z,3.00
2018-11-07T11:42:21.693Z,4.80
2018-11-07T11:43:21.679Z,3.60
2018-11-07T11:44:21.662Z,6.00
2018-11-07T11:45:21.713Z,4.10
2018-11-07T11:46:21.645Z,4.00
2018-11-07T11:47:21.635Z,4.10
2018-11-07T11:48:21.635Z,5.50
2018-11-07T11:49:21.701Z,3.50
2018-11-07T11:50:21.621Z,3.70
2018-11-07T11:51:21.599Z,7.70
2018-11-07T11:52:21.577Z,12.30
2018-11-07T11:53:21.583Z,10.60
2018-11-07T11:54:21.576Z,8.00
2018-11-07T11:55:21.579Z,4.50
2018-11-07T11:56:21.536Z,2.90
2018-11-07T11:57:21.557Z,5.40
2018-11-07T11:58:21.513Z,2.80
2018-11-07T11:59:21.645Z,2.60
2018-11-07T12:00:21.501Z,4.10
2018-11-07T12:01:21.525Z,2.40
2018-11-07T12:02:21.498Z,3.00
2018-11-07T12:03:21.468Z,3.50
2018-11-07T12:04:21.447Z,3.80
2018-11-07T12:05:21.439Z,4.80
2018-11-07T12:06:21.462Z,2.90
2018-11-07T12:07:21.415Z,4.60
2018-11-07T12:08:21.460Z,2.90
2018-11-07T12:09:21.393Z,5.00
2018-11-07T12:10:21.425Z,3.00
2018-11-07T12:11:21.450Z,3.00
2018-11-07T12:12:21.392Z,5.90
2018-11-07T12:13:21.358Z,4.70
2018-11-07T12:14:21.348Z,5.40
2018-11-07T12:15:21.407Z,4.40
2018-11-07T12:16:21.325Z,4.50
2018-11-07T12:17:21.332Z,4.10
2018-11-07T12:18:21.297Z,3.50
2018-11-07T12:19:21.288Z,2.50
2018-11-07T12:20:21.271Z,3.20
2018-11-07T12:21:21.378Z,2.70
2018-11-07T12:22:21.296Z,5.90
2018-11-07T12:23:21.241Z,3.70
2018-11-07T12:24:21.233Z,3.90
2018-11-07T12:25:21.269Z,5.00
2018-11-07T12:26:21.216Z,3.00
2018-11-07T12:27:21.200Z,3.70
2018-11-07T12:28:21.243Z,2.20
2018-11-07T12:29:21.227Z,5.10
2018-11-07T12:30:21.206Z,3.40
2018-11-07T12:31:21.158Z,3.30
2018-11-07T12:32:21.156Z,2.80
2018-11-07T12:33:21.183Z,2.10
2018-11-07T12:34:21.131Z,4.20
2018-11-07T12:35:21.116Z,6.90
2018-11-07T12:36:21.167Z,3.30
2018-11-07T12:37:21.096Z,3.90
2018-11-07T12:38:21.192Z,5.20
2018-11-07T12:39:21.088Z,1.60
2018-11-07T12:40:21.085Z,3.40
2018-11-07T12:41:21.048Z,2.80
2018-11-07T12:42:21.034Z,3.60
2018-11-07T12:43:21.036Z,2.60
2018-11-07T12:44:21.042Z,4.40
2018-11-07T12:45:21.015Z,3.40
2018-11-07T12:46:21.023Z,5.00
2018-11-07T12:47:20.983Z,3.10
2018-11-07T12:48:20.986Z,2.20
2018-11-07T12:49:20.991Z,1.80
2018-11-07T12:50:21.029Z,2.20
2018-11-07T12:51:20.937Z,2.30
2018-11-07T12:52:20.967Z,3.40
2018-11-07T12:53:20.919Z,2.30
2018-11-07T12:54:20.936Z,1.90
2018-11-07T12:55:20.969Z,4.10
2018-11-07T12:56:20.901Z,3.80
2018-11-07T12:57:20.964Z,3.80
2018-11-07T12:58:21.090Z,4.00
2018-11-07T12:59:20.849Z,2.10
2018-11-07T13:00:20.864Z,4.20
2018-11-07T13:01:20.867Z,2.50
2018-11-07T13:02:20.830Z,4.70
2018-11-07T13:03:20.815Z,3.10
2018-11-07T13:04:20.830Z,2.60
2018-11-07T13:05:20.809Z,4.40
2018-11-07T13:06:20.777Z,3.00
2018-11-07T13:07:20.766Z,6.60
2018-11-07T13:08:20.756Z,5.40
2018-11-07T13:09:20.775Z,3.40
2018-11-07T13:10:20.738Z,2.90
2018-11-07T13:11:20.840Z,4.80
2018-11-07T13:12:20.775Z,2.30
2018-11-07T13:13:20.708Z,3.00
2018-11-07T13:14:20.731Z,4.30
2018-11-07T13:15:20.683Z,8.40
2018-11-07T13:16:20.707Z,6.80
2018-11-07T13:17:20.665Z,6.30
2018-11-07T13:18:20.653Z,4.80
2018-11-07T13:19:20.636Z,3.20
2018-11-07T13:20:20.661Z,4.60
2018-11-07T13:21:20.667Z,3.40
2018-11-07T13:22:20.626Z,6.10
2018-11-07T13:23:20.632Z,3.40
2018-11-07T13:24:20.585Z,2.00
2018-11-07T13:25:20.604Z,3.30
2018-11-07T13:26:20.620Z,2.60
2018-11-07T13:27:20.548Z,2.60
2018-11-07T13:28:20.605Z,2.60
2018-11-07T13:29:20.531Z,3.90